createdAt,value
2023-01-23T00:01:18.906Z,101653.52
2023-01-23T00:03:45.799Z,101651.95
2023-01-23T00:06:14.166Z,101649.39
2023-01-23T00:08:41.311Z,101648.13
2023-01-23T00:11:09.740Z,101649.95
2023-01-23T00:13:36.591Z,101654.55
2023-01-23T00:16:05.516Z,101656.04
2023-01-23T00:18:32.711Z,101658.06
2023-01-23T00:21:03.241Z,101659.71
2023-01-23T00:23:30.101Z,101656.44
2023-01-23T00:26:02.545Z,101656.65
2023-01-23T00:28:29.430Z,101651.69
2023-01-23T00:31:06.036Z,101657.34
2023-01-23T00:33:32.957Z,101662.71
2023-01-23T00:36:00.352Z,101660.86
2023-01-23T00:38:27.347Z,101659.80
2023-01-23T00:40:55.286Z,101658.91
2023-01-23T00:43:22.944Z,101657.80
2023-01-23T00:45:50.208Z,101659.19
2023-01-23T00:48:17.018Z,101660.14
2023-01-23T00:50:44.476Z,101658.35
2023-01-23T00:53:13.151Z,101658.84
2023-01-23T00:55:40.551Z,101657.08
2023-01-23T00:58:08.719Z,101656.83
2023-01-23T01:00:38.600Z,101658.64
2023-01-23T01:03:05.647Z,101661.09
2023-01-23T01:05:32.959Z,101655.17
2023-01-23T01:07:59.751Z,101651.62
2023-01-23T01:10:29.681Z,101648.23
2023-01-23T01:12:57.763Z,101649.26
2023-01-23T01:15:24.821Z,101646.30
2023-01-23T01:17:54.306Z,101649.92
2023-01-23T01:20:23.796Z,101651.51
2023-01-23T01:22:50.687Z,101649.35
2023-01-23T01:25:17.741Z,101650.36
2023-01-23T01:27:44.674Z,101643.06
2023-01-23T01:30:11.865Z,101643.91
2023-01-23T01:32:39.904Z,101642.96
2023-01-23T01:35:08.136Z,101642.66
2023-01-23T01:37:36.055Z,101642.78
2023-01-23T01:40:03.593Z,101643.06
2023-01-23T01:42:30.627Z,101641.00
2023-01-23T01:45:01.563Z,101640.10
2023-01-23T01:47:28.375Z,101643.05
2023-01-23T01:50:01.534Z,101640.80
2023-01-23T01:52:28.319Z,101640.74
2023-01-23T01:55:05.023Z,101640.98
2023-01-23T01:57:36.400Z,101634.38
2023-01-23T02:00:12.372Z,101633.48
2023-01-23T02:02:45.303Z,101635.39
2023-01-23T02:05:14.399Z,101636.38
2023-01-23T02:07:54.974Z,101636.14
2023-01-23T02:10:22.726Z,101635.17
2023-01-23T02:12:51.636Z,101636.41
2023-01-23T02:15:21.094Z,101633.09
2023-01-23T02:17:49.403Z,101630.44
2023-01-23T02:20:24.164Z,101632.58
2023-01-23T02:22:57.792Z,101633.04
2023-01-23T02:25:29.558Z,101630.07
2023-01-23T02:27:56.674Z,101631.02
2023-01-23T02:30:23.998Z,101629.01
2023-01-23T02:32:52.286Z,101631.02
2023-01-23T02:35:28.156Z,101636.09
2023-01-23T02:37:58.925Z,101631.92
2023-01-23T02:40:37.470Z,101632.30
2023-01-23T02:43:06.163Z,101632.89
2023-01-23T02:45:33.915Z,101639.15
2023-01-23T02:48:01.785Z,101639.04
2023-01-23T02:50:29.030Z,101642.20
2023-01-23T02:52:58.041Z,101641.41
2023-01-23T02:55:26.705Z,101638.67
2023-01-23T02:57:53.856Z,101636.39
2023-01-23T03:00:22.368Z,101638.23
2023-01-23T03:02:50.886Z,101636.02
2023-01-23T03:05:18.246Z,101634.33
2023-01-23T03:07:45.019Z,101638.77
2023-01-23T03:10:12.481Z,101638.48
2023-01-23T03:12:43.827Z,101637.23
2023-01-23T03:15:13.212Z,101644.33
2023-01-23T03:17:40.259Z,101643.36
2023-01-23T03:20:07.558Z,101646.39
2023-01-23T03:22:34.760Z,101647.02
2023-01-23T03:25:01.580Z,101641.79
2023-01-23T03:27:28.916Z,101642.37
2023-01-23T03:30:15.836Z,101638.75
2023-01-23T03:32:43.572Z,101640.30
2023-01-23T03:35:10.688Z,101643.93
2023-01-23T03:37:37.451Z,101647.05
2023-01-23T03:40:23.226Z,101645.56
2023-01-23T03:42:49.975Z,101646.73
2023-01-23T03:45:23.529Z,101651.59
2023-01-23T03:47:51.069Z,101652.39
2023-01-23T03:50:18.052Z,101658.52
2023-01-23T03:52:45.260Z,101663.50
2023-01-23T03:55:12.070Z,101669.64
2023-01-23T03:57:38.895Z,101668.27
2023-01-23T04:00:06.632Z,101670.19
2023-01-23T04:02:45.575Z,101670.58
2023-01-23T04:05:13.890Z,101673.12
2023-01-23T04:09:09.051Z,101674.86
2023-01-23T04:11:36.224Z,101676.47
2023-01-23T04:14:05.138Z,101677.34
2023-01-23T04:16:32.248Z,101676.10
2023-01-23T04:18:59.407Z,101672.27
2023-01-23T04:21:26.994Z,101674.39
2023-01-23T04:23:53.976Z,101674.68
2023-01-23T04:26:21.095Z,101674.91
2023-01-23T04:28:47.977Z,101677.06
2023-01-23T04:31:15.859Z,101677.11
2023-01-23T04:33:45.037Z,101678.39
2023-01-23T04:36:12.388Z,101680.66
2023-01-23T04:38:39.034Z,101685.63
2023-01-23T04:41:21.920Z,101687.16
2023-01-23T04:43:50.082Z,101692.70
2023-01-23T04:46:17.316Z,101698.90
2023-01-23T04:49:08.627Z,101702.50
2023-01-23T04:51:37.012Z,101700.11
2023-01-23T04:54:04.488Z,101698.38
2023-01-23T04:56:32.387Z,101697.42
2023-01-23T04:59:00.107Z,101698.58
2023-01-23T05:01:27.006Z,101700.48
2023-01-23T05:03:56.724Z,101700.49
2023-01-23T05:06:24.148Z,101700.41
2023-01-23T05:08:52.584Z,101704.34
2023-01-23T05:11:27.897Z,101703.63
2023-01-23T05:13:54.572Z,101708.09
2023-01-23T05:16:21.551Z,101708.84
2023-01-23T05:19:12.008Z,101712.45
2023-01-23T05:21:38.976Z,101714.89
2023-01-23T05:24:06.418Z,101715.42
2023-01-23T05:26:34.662Z,101717.23
2023-01-23T05:29:03.002Z,101718.73
2023-01-23T05:31:30.018Z,101718.59
2023-01-23T05:34:23.490Z,101721.64
2023-01-23T05:36:50.188Z,101721.41
2023-01-23T05:39:16.849Z,101722.48
2023-01-23T05:41:43.924Z,101725.70
2023-01-23T05:44:31.898Z,101727.63
2023-01-23T05:47:04.959Z,101732.35
2023-01-23T05:49:33.225Z,101731.59
2023-01-23T05:51:59.924Z,101733.20
2023-01-23T05:54:29.369Z,101733.70
2023-01-23T05:56:56.223Z,101737.05
2023-01-23T05:59:41.501Z,101735.80
2023-01-23T06:02:28.643Z,101742.27
2023-01-23T06:05:15.952Z,101743.52
2023-01-23T06:07:56.750Z,101750.76
2023-01-23T06:10:25.606Z,101750.36
2023-01-23T06:12:52.464Z,101752.63
2023-01-23T06:15:19.105Z,101752.76
2023-01-23T06:17:46.043Z,101751.30
2023-01-23T06:20:13.807Z,101751.56
2023-01-23T06:22:41.882Z,101748.12
2023-01-23T06:25:11.814Z,101746.42
2023-01-23T06:27:38.917Z,101747.00
2023-01-23T06:30:08.443Z,101751.08
2023-01-23T06:32:43.660Z,101751.76
2023-01-23T06:35:11.631Z,101756.55
2023-01-23T06:37:41.040Z,101759.39
2023-01-23T06:40:13.588Z,101761.48
2023-01-23T06:42:43.016Z,101760.25
2023-01-23T06:45:10.794Z,101760.66
2023-01-23T06:47:37.829Z,101760.42
2023-01-23T06:50:05.794Z,101764.20
2023-01-23T06:52:36.105Z,101764.66
2023-01-23T06:55:02.985Z,101771.70
2023-01-23T06:57:30.247Z,101777.32
2023-01-23T06:59:57.244Z,101777.03
2023-01-23T07:02:25.552Z,101780.71
2023-01-23T07:04:52.788Z,101784.55
2023-01-23T07:07:22.092Z,101783.02
2023-01-23T07:09:49.345Z,101782.34
2023-01-23T07:12:19.216Z,101785.16
2023-01-23T07:14:46.177Z,101786.71
2023-01-23T07:17:16.730Z,101784.69
2023-01-23T07:19:43.918Z,101788.33
2023-01-23T07:22:12.226Z,101788.04
2023-01-23T07:24:39.421Z,101783.40
2023-01-23T07:27:06.113Z,101788.38
2023-01-23T07:29:34.036Z,101788.70
2023-01-23T07:32:00.666Z,101790.83
2023-01-23T07:34:28.005Z,101789.16
2023-01-23T07:36:55.368Z,101792.66
2023-01-23T07:39:22.217Z,101794.73
2023-01-23T07:41:48.784Z,101797.77
2023-01-23T07:44:17.490Z,101795.39
2023-01-23T07:46:45.322Z,101797.70
2023-01-23T07:49:12.550Z,101802.80
2023-01-23T07:51:39.846Z,101801.17
2023-01-23T07:54:06.969Z,101803.13
2023-01-23T07:56:34.347Z,101806.56
2023-01-23T07:59:01.240Z,101808.36
2023-01-23T08:01:28.189Z,101812.88
2023-01-23T08:03:55.095Z,101811.08
2023-01-23T08:06:21.877Z,101813.73
2023-01-23T08:08:49.476Z,101819.39
2023-01-23T08:11:16.518Z,101819.92
2023-01-23T08:13:43.263Z,101825.39
2023-01-23T08:16:13.352Z,101829.77
2023-01-23T08:18:40.388Z,101825.91
2023-01-23T08:21:07.437Z,101827.66
2023-01-23T08:23:35.351Z,101826.31
2023-01-23T08:26:04.092Z,101828.06
2023-01-23T08:28:30.766Z,101829.30
2023-01-23T08:31:01.815Z,101833.80
2023-01-23T08:33:28.928Z,101837.42
2023-01-23T08:35:57.157Z,101837.71
2023-01-23T08:38:23.871Z,101838.52
2023-01-23T08:40:52.121Z,101837.41
2023-01-23T08:43:20.054Z,101834.89
2023-01-23T08:45:50.770Z,101829.09
2023-01-23T08:48:18.748Z,101831.88
2023-01-23T08:50:45.876Z,101830.48
2023-01-23T08:53:13.074Z,101831.08
2023-01-23T08:55:40.130Z,101829.36
2023-01-23T08:58:07.487Z,101832.91
2023-01-23T09:00:34.321Z,101831.67
2023-01-23T09:03:01.926Z,101831.90
2023-01-23T09:05:28.930Z,101833.23
2023-01-23T09:07:56.571Z,101833.48
2023-01-23T09:10:24.570Z,101833.30
2023-01-23T09:12:52.295Z,101831.20
2023-01-23T09:15:19.024Z,101829.69
2023-01-23T09:17:46.151Z,101828.07
2023-01-23T09:20:13.175Z,101827.02
2023-01-23T09:22:39.838Z,101832.34
2023-01-23T09:25:07.238Z,101830.67
2023-01-23T09:27:34.128Z,101827.89
2023-01-23T09:30:00.848Z,101820.79
2023-01-23T09:32:27.596Z,101820.58
2023-01-23T09:34:54.673Z,101820.80
2023-01-23T09:37:21.572Z,101822.12
2023-01-23T09:39:51.089Z,101819.42
2023-01-23T09:42:20.714Z,101819.52
2023-01-23T09:44:50.052Z,101821.50
2023-01-23T09:47:24.760Z,101820.14
2023-01-23T09:50:06.683Z,101819.45
2023-01-23T09:52:45.433Z,101818.69
2023-01-23T09:55:21.354Z,101816.73
2023-01-23T09:57:55.672Z,101815.79
2023-01-23T10:00:27.055Z,101816.73
2023-01-23T10:02:53.761Z,101812.85
2023-01-23T10:05:25.564Z,101809.73
2023-01-23T10:07:56.179Z,101807.17
2023-01-23T10:10:54.128Z,101807.55
2023-01-23T10:13:39.468Z,101813.49
2023-01-23T10:16:25.049Z,101821.99
2023-01-23T10:19:19.301Z,101820.89
2023-01-23T10:22:25.475Z,101818.23
2023-01-23T10:24:55.069Z,101813.10
2023-01-23T10:27:24.039Z,101810.81
2023-01-23T10:29:57.433Z,101811.42
2023-01-23T10:35:18.163Z,101809.17
2023-01-23T10:38:06.204Z,101808.42
2023-01-23T10:40:52.574Z,101807.55
2023-01-23T10:43:20.585Z,101799.67
2023-01-23T10:45:48.512Z,101798.11
2023-01-23T10:48:34.613Z,101794.84
2023-01-23T10:51:01.636Z,101793.84
2023-01-23T10:53:43.839Z,101790.45
2023-01-23T10:56:13.672Z,101790.33
2023-01-23T10:58:44.255Z,101784.41
2023-01-23T11:01:38.779Z,101781.42
2023-01-23T11:04:18.124Z,101776.17
2023-01-23T11:06:51.240Z,101778.11
2023-01-23T11:09:19.335Z,101779.28
2023-01-23T11:12:04.506Z,101778.68
2023-01-23T11:14:31.993Z,101780.19
2023-01-23T11:17:03.637Z,101780.80
2023-01-23T11:19:32.074Z,101776.91
2023-01-23T11:22:03.563Z,101781.98
2023-01-23T11:24:41.363Z,101780.41
2023-01-23T11:27:29.266Z,101781.75
2023-01-23T11:30:08.309Z,101782.27
2023-01-23T11:32:55.148Z,101781.75
2023-01-23T11:35:47.163Z,101781.16
2023-01-23T11:38:19.791Z,101782.20
2023-01-23T11:40:51.132Z,101780.83
2023-01-23T11:43:17.772Z,101779.10
2023-01-23T11:46:06.284Z,101782.92
2023-01-23T11:52:48.144Z,101779.77
2023-01-23T11:55:40.232Z,101777.19
2023-01-23T11:58:25.836Z,101776.15
2023-01-23T12:01:05.348Z,101775.05
2023-01-23T12:04:00.404Z,101773.69
2023-01-23T12:06:42.758Z,101775.78
2023-01-23T12:09:19.664Z,101778.21
2023-01-23T12:12:11.646Z,101777.50
2023-01-23T12:14:50.539Z,101779.80
2023-01-23T12:17:49.794Z,101776.73
2023-01-23T12:20:44.356Z,101778.73
2023-01-23T12:23:33.879Z,101779.70
2023-01-23T12:26:11.974Z,101782.49
2023-01-23T12:28:53.763Z,101784.23
2023-01-23T12:31:36.878Z,101784.98
2023-01-23T12:34:39.572Z,101782.92
2023-01-23T12:37:30.673Z,101784.59
2023-01-23T12:41:36.866Z,101783.30
2023-01-23T12:44:34.191Z,101784.66
2023-01-23T12:47:05.599Z,101789.73
2023-01-23T12:50:04.359Z,101787.23
2023-01-23T12:52:39.798Z,101786.46
2023-01-23T12:55:20.829Z,101785.99
2023-01-23T12:57:59.468Z,101789.16
2023-01-23T13:00:37.771Z,101789.58
2023-01-23T13:04:03.683Z,101792.46
2023-01-23T13:06:40.539Z,101791.34
2023-01-23T13:09:18.478Z,101792.34
2023-01-23T13:11:56.224Z,101799.83
2023-01-23T13:14:43.536Z,101795.08
2023-01-23T13:17:26.828Z,101795.74
2023-01-23T13:20:12.980Z,101792.52
2023-01-23T13:22:39.913Z,101794.96
2023-01-23T13:25:19.981Z,101790.61
2023-01-23T13:27:54.976Z,101793.57
2023-01-23T13:30:35.757Z,101797.88
2023-01-23T13:33:05.263Z,101796.64
2023-01-23T13:35:39.304Z,101800.78
2023-01-23T13:38:21.221Z,101803.80
2023-01-23T13:41:06.202Z,101798.18
2023-01-23T13:43:55.133Z,101804.41
2023-01-23T13:46:28.021Z,101801.02
2023-01-23T14:21:59.394Z,101805.25
2023-01-23T14:24:44.584Z,101805.91
2023-01-23T14:27:21.581Z,101807.52
2023-01-23T14:29:59.916Z,101806.70
2023-01-23T14:32:29.419Z,101806.25
2023-01-23T14:34:56.273Z,101805.21
2023-01-23T14:37:23.002Z,101803.45
2023-01-23T14:39:53.702Z,101808.90
2023-01-23T14:42:30.340Z,101811.71
2023-01-23T14:44:58.391Z,101810.63
2023-01-23T14:47:34.722Z,101811.70
2023-01-23T14:50:02.246Z,101808.39
2023-01-23T14:52:30.220Z,101806.51
2023-01-23T14:55:01.178Z,101806.06
2023-01-23T14:57:34.706Z,101805.46
2023-01-23T15:00:01.858Z,101801.84
2023-01-23T15:05:26.385Z,101799.03
2023-01-23T15:07:57.319Z,101799.77
2023-01-23T15:10:40.061Z,101796.48
2023-01-23T15:13:09.738Z,101799.48
2023-01-23T15:15:36.684Z,101807.52
2023-01-23T15:18:05.886Z,101805.58
2023-01-23T15:20:40.397Z,101808.40
2023-01-23T15:23:26.893Z,101810.58
2023-01-23T15:26:19.411Z,101813.73
2023-01-23T15:29:20.178Z,101813.34
2023-01-23T15:31:51.116Z,101820.50
2023-01-23T15:34:50.323Z,101824.79
2023-01-23T15:37:20.229Z,101823.83
2023-01-23T15:39:59.298Z,101827.09
2023-01-23T15:42:31.445Z,101827.05
2023-01-23T15:45:00.941Z,101829.60
2023-01-23T15:47:29.826Z,101830.64
2023-01-23T15:50:01.079Z,101829.63
2023-01-23T15:52:30.166Z,101836.84
2023-01-23T15:55:02.542Z,101839.95
2023-01-23T15:57:29.688Z,101837.17
2023-01-23T15:59:56.749Z,101839.77
2023-01-23T16:02:31.070Z,101838.71
2023-01-23T16:05:00.764Z,101841.31
2023-01-23T16:07:33.849Z,101842.68
2023-01-23T16:10:25.992Z,101839.14
2023-01-23T16:12:54.371Z,101842.95
2023-01-23T16:15:25.111Z,101842.48
2023-01-23T16:17:53.289Z,101842.86
2023-01-23T16:20:22.176Z,101841.55
2023-01-23T16:22:51.522Z,101841.15
2023-01-23T16:27:18.966Z,101840.34
2023-01-23T16:29:49.263Z,101842.11
2023-01-23T16:32:17.541Z,101843.30
2023-01-23T16:34:44.802Z,101845.61
2023-01-23T16:37:16.143Z,101849.98
2023-01-23T16:39:47.280Z,101847.41
2023-01-23T16:42:22.434Z,101854.05
2023-01-23T16:44:50.546Z,101856.30
2023-01-23T16:47:17.952Z,101857.39
2023-01-23T16:49:53.664Z,101857.99
2023-01-23T16:52:22.598Z,101858.41
2023-01-23T16:54:51.581Z,101855.45
2023-01-23T16:57:19.353Z,101855.23
2023-01-23T16:59:46.294Z,101857.95
2023-01-23T17:02:20.841Z,101856.61
2023-01-23T17:04:48.062Z,101858.20
2023-01-23T17:07:16.562Z,101863.61
2023-01-23T17:09:44.321Z,101865.77
2023-01-23T17:12:14.428Z,101865.92
2023-01-23T17:14:41.889Z,101868.22
2023-01-23T17:17:15.801Z,101873.02
2023-01-23T17:19:43.053Z,101876.02
2023-01-23T17:22:27.307Z,101872.95
2023-01-23T17:24:54.160Z,101873.22
2023-01-23T17:27:21.510Z,101871.85
2023-01-23T17:29:49.298Z,101873.36
2023-01-23T17:32:34.150Z,101873.04
2023-01-23T17:35:03.717Z,101870.02
2023-01-23T17:37:30.792Z,101872.77
2023-01-23T17:39:57.733Z,101872.37
2023-01-23T17:42:24.772Z,101869.94
2023-01-23T17:44:51.830Z,101870.17
2023-01-23T17:47:19.198Z,101870.41
2023-01-23T17:49:51.372Z,101867.17
2023-01-23T17:52:21.150Z,101866.64
2023-01-23T17:54:48.825Z,101867.89
2023-01-23T17:57:19.448Z,101863.21
2023-01-23T17:59:46.799Z,101862.98
2023-01-23T18:02:27.213Z,101861.50
2023-01-23T18:04:54.637Z,101859.28
2023-01-23T18:07:21.886Z,101858.51
2023-01-23T18:09:49.025Z,101856.27
2023-01-23T18:12:23.079Z,101863.81
2023-01-23T18:14:52.434Z,101861.70
2023-01-23T18:17:27.270Z,101859.91
2023-01-23T18:19:54.940Z,101859.48
2023-01-23T18:22:22.896Z,101854.32
2023-01-23T18:24:50.249Z,101856.52
2023-01-23T18:27:24.879Z,101853.34
2023-01-23T18:29:55.091Z,101855.02
2023-01-23T18:32:50.111Z,101856.69
2023-01-23T18:35:45.103Z,101855.52
2023-01-23T18:38:14.846Z,101853.27
2023-01-23T18:40:42.387Z,101850.46
2023-01-23T18:43:15.146Z,101855.35
2023-01-23T18:45:42.363Z,101857.22
2023-01-23T18:48:24.733Z,101856.29
2023-01-23T18:51:07.928Z,101854.82
2023-01-23T18:53:43.399Z,101851.86
2023-01-23T18:56:13.855Z,101850.63
2023-01-23T18:59:11.666Z,101851.27
2023-01-23T19:02:01.001Z,101851.85
2023-01-23T19:04:56.709Z,101846.48
2023-01-23T19:07:26.100Z,101850.80
2023-01-23T19:09:53.548Z,101849.59
2023-01-23T19:12:40.732Z,101851.12
2023-01-23T19:15:36.616Z,101852.45
2023-01-23T19:18:40.296Z,101853.91
2023-01-23T19:21:24.502Z,101854.96
2023-01-23T19:23:54.645Z,101852.55
2023-01-23T19:26:22.421Z,101851.80
2023-01-23T19:28:50.264Z,101847.84
2023-01-23T19:31:24.424Z,101848.79
2023-01-23T19:33:52.257Z,101848.84
2023-01-23T19:36:19.673Z,101848.73
2023-01-23T19:38:46.437Z,101848.73
2023-01-23T19:41:41.374Z,101849.56
2023-01-23T19:44:15.936Z,101846.90
2023-01-23T19:46:43.416Z,101843.10
2023-01-23T19:49:10.662Z,101845.52
2023-01-23T19:51:39.197Z,101843.84
2023-01-23T19:54:08.805Z,101840.06
2023-01-23T19:56:36.023Z,101838.41
2023-01-23T19:59:02.806Z,101839.39
2023-01-23T20:01:34.837Z,101837.16
2023-01-23T20:04:03.220Z,101839.85
2023-01-23T20:06:33.743Z,101838.92
2023-01-23T20:09:00.667Z,101842.84
2023-01-23T20:11:27.540Z,101845.73
2023-01-23T20:13:54.605Z,101843.35
2023-01-23T20:16:24.633Z,101844.80
2023-01-23T20:18:53.294Z,101849.41
2023-01-23T20:21:21.969Z,101848.92
2023-01-23T20:23:49.364Z,101851.05
2023-01-23T20:26:18.309Z,101848.96
2023-01-23T20:28:49.558Z,101848.85
2023-01-23T20:31:16.455Z,101846.16
2023-01-23T20:33:44.264Z,101846.21
2023-01-23T20:36:11.417Z,101849.27
2023-01-23T20:38:39.098Z,101853.98
2023-01-23T20:41:09.049Z,101851.96
2023-01-23T20:43:37.712Z,101850.47
2023-01-23T20:46:05.984Z,101852.11
2023-01-23T20:48:34.043Z,101853.66
2023-01-23T20:51:01.135Z,101850.46
2023-01-23T20:53:31.203Z,101851.96
2023-01-23T20:56:02.807Z,101850.67
2023-01-23T20:58:49.473Z,101850.25
2023-01-23T21:01:19.841Z,101848.91
2023-01-23T21:03:48.256Z,101845.30
2023-01-23T21:06:16.258Z,101844.95
2023-01-23T21:08:43.669Z,101843.92
2023-01-23T21:11:13.390Z,101847.54
2023-01-23T21:13:40.542Z,101846.12
2023-01-23T21:16:09.116Z,101846.70
2023-01-23T21:18:44.159Z,101845.84
2023-01-23T21:21:18.295Z,101839.41
2023-01-23T21:23:50.851Z,101838.55
2023-01-23T21:26:20.462Z,101841.10
2023-01-23T21:28:47.844Z,101842.50
2023-01-23T21:31:20.277Z,101843.36
2023-01-23T21:33:47.256Z,101843.84
2023-01-23T21:36:16.736Z,101843.95
2023-01-23T21:38:43.542Z,101843.75
2023-01-23T21:41:11.553Z,101845.48
2023-01-23T21:43:38.676Z,101845.56
2023-01-23T21:46:06.329Z,101843.85
2023-01-23T21:48:33.757Z,101840.23
2023-01-23T21:51:20.749Z,101837.77
2023-01-23T21:53:48.491Z,101831.73
2023-01-23T21:56:17.695Z,101832.62
2023-01-23T21:58:44.473Z,101830.77
2023-01-23T22:01:31.489Z,101828.88
2023-01-23T22:04:05.453Z,101835.75
2023-01-23T22:06:37.090Z,101831.65
2023-01-23T22:09:04.696Z,101833.28
2023-01-23T22:11:31.930Z,101830.47
2023-01-23T22:13:58.609Z,101832.83
2023-01-23T22:16:35.971Z,101833.11
2023-01-23T22:19:16.844Z,101831.20
2023-01-23T22:21:45.719Z,101832.95
2023-01-23T22:24:12.497Z,101834.00
2023-01-23T22:26:39.419Z,101831.94
2023-01-23T22:29:06.735Z,101836.72
2023-01-23T22:31:34.218Z,101834.55
2023-01-23T22:34:00.883Z,101838.61
2023-01-23T22:36:27.469Z,101834.17
2023-01-23T22:38:54.776Z,101832.38
2023-01-23T22:41:21.519Z,101833.98
2023-01-23T22:43:53.833Z,101836.79
2023-01-23T22:46:21.134Z,101834.11
2023-01-23T22:48:47.716Z,101833.05
2023-01-23T22:51:16.443Z,101831.96
2023-01-23T22:53:43.235Z,101834.48
2023-01-23T22:56:10.011Z,101832.88
2023-01-23T22:58:36.889Z,101831.17
2023-01-23T23:01:03.594Z,101827.64
2023-01-23T23:03:32.149Z,101834.36
2023-01-23T23:06:00.863Z,101834.10
2023-01-23T23:08:28.219Z,101832.31
2023-01-23T23:10:59.176Z,101832.59
2023-01-23T23:13:27.961Z,101833.91
2023-01-23T23:15:54.772Z,101835.20
2023-01-23T23:18:21.882Z,101835.44
2023-01-23T23:20:48.855Z,101832.70
2023-01-23T23:23:15.986Z,101837.25
2023-01-23T23:25:43.049Z,101836.23
2023-01-23T23:28:10.026Z,101835.27
2023-01-23T23:30:36.974Z,101839.14
2023-01-23T23:33:04.018Z,101843.57
2023-01-23T23:35:32.308Z,101841.23
2023-01-23T23:37:59.222Z,101837.92
2023-01-23T23:40:26.085Z,101836.98
2023-01-23T23:42:53.443Z,101835.98
2023-01-23T23:45:20.517Z,101836.19
2023-01-23T23:47:47.528Z,101835.42
2023-01-23T23:50:14.484Z,101836.94
2023-01-23T23:52:41.700Z,101836.86
2023-01-23T23:55:08.610Z,101837.63
2023-01-23T23:57:35.248Z,101836.32
